createdAt,value
2023-12-21T00:00:16.415Z,4.40
2023-12-21T00:02:43.310Z,4.40
2023-12-21T00:05:10.846Z,4.37
2023-12-21T00:07:37.942Z,4.36
2023-12-21T00:10:05.470Z,4.38
2023-12-21T00:12:32.849Z,4.40
2023-12-21T00:14:59.720Z,4.40
2023-12-21T00:17:26.622Z,4.39
2023-12-21T00:19:57.244Z,4.37
2023-12-21T00:22:24.799Z,4.34
2023-12-21T00:24:51.726Z,4.33
2023-12-21T00:27:18.790Z,4.34
2023-12-21T00:29:45.647Z,4.33
2023-12-21T00:32:13.787Z,4.31
2023-12-21T00:34:40.899Z,4.29
2023-12-21T00:37:07.835Z,4.28
2023-12-21T00:39:34.773Z,4.28
2023-12-21T00:42:01.640Z,4.25
2023-12-21T00:44:28.487Z,4.22
2023-12-21T00:46:55.376Z,4.19
2023-12-21T00:49:22.401Z,4.19
2023-12-21T00:51:49.539Z,4.18
2023-12-21T00:54:16.426Z,4.19
2023-12-21T00:56:43.527Z,4.16
2023-12-21T00:59:10.458Z,4.16
2023-12-21T01:01:38.007Z,4.17
2023-12-21T01:04:05.678Z,4.18
2023-12-21T01:06:32.590Z,4.19
2023-12-21T01:08:59.469Z,4.19
2023-12-21T01:11:26.760Z,4.18
2023-12-21T01:13:53.565Z,4.18
2023-12-21T01:16:20.435Z,4.21
2023-12-21T01:18:47.989Z,4.23
2023-12-21T01:21:14.992Z,4.25
2023-12-21T01:23:42.946Z,4.24
2023-12-21T01:26:09.775Z,4.23
2023-12-21T01:28:36.733Z,4.24
2023-12-21T01:31:04.094Z,4.25
2023-12-21T01:33:31.130Z,4.26
2023-12-21T01:35:58.225Z,4.25
2023-12-21T01:38:25.212Z,4.24
2023-12-21T01:40:52.396Z,4.24
2023-12-21T01:43:19.428Z,4.23
2023-12-21T01:45:46.648Z,4.26
2023-12-21T01:48:13.784Z,4.27
2023-12-21T01:50:44.168Z,4.27
2023-12-21T01:53:13.147Z,4.26
2023-12-21T01:55:40.601Z,4.27
2023-12-21T01:58:07.670Z,4.29
2023-12-21T02:00:34.715Z,4.31
2023-12-21T02:03:02.599Z,4.32
2023-12-21T02:05:29.474Z,4.32
2023-12-21T02:07:56.387Z,4.30
2023-12-21T02:10:23.254Z,4.32
2023-12-21T02:12:50.416Z,4.34
2023-12-21T02:15:17.414Z,4.38
2023-12-21T02:17:48.059Z,4.41
2023-12-21T02:20:16.217Z,4.43
2023-12-21T02:22:46.032Z,4.41
2023-12-21T02:25:13.730Z,4.41
2023-12-21T02:27:40.743Z,4.44
2023-12-21T02:30:08.287Z,4.45
2023-12-21T02:32:35.312Z,4.46
2023-12-21T02:35:03.996Z,4.44
2023-12-21T02:37:32.358Z,4.43
2023-12-21T02:39:59.294Z,4.44
2023-12-21T02:42:26.349Z,4.46
2023-12-21T02:44:53.292Z,4.48
2023-12-21T02:47:20.185Z,4.49
2023-12-21T02:49:47.786Z,4.48
2023-12-21T02:52:15.561Z,4.46
2023-12-21T02:54:42.425Z,4.46
2023-12-21T02:57:09.290Z,4.47
2023-12-21T02:59:36.194Z,4.46
2023-12-21T03:02:03.170Z,4.45
2023-12-21T03:04:30.003Z,4.42
2023-12-21T03:06:57.119Z,4.43
2023-12-21T03:09:24.024Z,4.46
2023-12-21T03:11:50.901Z,4.47
2023-12-21T03:14:17.811Z,4.48
2023-12-21T03:16:44.717Z,4.47
2023-12-21T03:19:11.850Z,4.46
2023-12-21T03:21:38.756Z,4.47
2023-12-21T03:24:06.052Z,4.50
2023-12-21T03:26:33.302Z,4.48
2023-12-21T03:29:00.171Z,4.45
2023-12-21T03:31:27.393Z,4.43
2023-12-21T03:33:54.414Z,4.43
2023-12-21T03:36:21.826Z,4.43
2023-12-21T03:38:49.049Z,4.42
2023-12-21T03:41:15.937Z,4.41
2023-12-21T03:43:42.972Z,4.39
2023-12-21T03:46:10.912Z,4.37
2023-12-21T03:48:37.898Z,4.38
2023-12-21T03:51:05.389Z,4.38
2023-12-21T03:53:32.582Z,4.35
2023-12-21T03:55:59.435Z,4.32
2023-12-21T03:58:26.371Z,4.29
2023-12-21T04:00:53.614Z,4.27
2023-12-21T04:03:20.706Z,4.27
2023-12-21T04:05:47.606Z,4.26
2023-12-21T04:08:16.306Z,4.26
2023-12-21T04:10:43.335Z,4.24
2023-12-21T04:13:10.288Z,4.22
2023-12-21T04:15:37.636Z,4.25
2023-12-21T04:18:04.714Z,4.27
2023-12-21T04:20:31.657Z,4.29
2023-12-21T04:22:58.532Z,4.28
2023-12-21T04:25:25.490Z,4.28
2023-12-21T04:27:53.615Z,4.31
2023-12-21T04:30:20.675Z,4.33
2023-12-21T04:32:48.243Z,4.37
2023-12-21T04:35:15.404Z,4.38
2023-12-21T04:37:42.409Z,4.39
2023-12-21T04:40:10.455Z,4.41
2023-12-21T04:42:37.468Z,4.42
2023-12-21T04:45:04.601Z,4.45
2023-12-21T04:47:31.574Z,4.48
2023-12-21T04:49:58.562Z,4.48
2023-12-21T04:52:25.784Z,4.48
2023-12-21T04:54:55.757Z,4.48
2023-12-21T04:57:24.373Z,4.51
2023-12-21T04:59:51.845Z,4.55
2023-12-21T05:02:19.295Z,4.59
2023-12-21T05:04:46.256Z,4.61
2023-12-21T05:07:13.302Z,4.63
2023-12-21T05:09:40.335Z,4.68
2023-12-21T05:12:07.401Z,4.72
2023-12-21T05:14:34.374Z,4.75
2023-12-21T05:17:01.363Z,4.79
2023-12-21T05:19:28.229Z,4.81
2023-12-21T05:21:55.199Z,4.81
2023-12-21T05:24:22.051Z,4.83
2023-12-21T05:26:48.911Z,4.84
2023-12-21T05:29:16.006Z,4.84
2023-12-21T05:31:44.247Z,4.83
2023-12-21T05:34:11.419Z,4.82
2023-12-21T05:36:38.439Z,4.82
2023-12-21T05:39:17.317Z,4.81
2023-12-21T05:44:29.700Z,4.71
2023-12-21T05:46:56.660Z,4.67
2023-12-21T05:49:24.454Z,4.63
2023-12-21T05:51:51.318Z,4.61
2023-12-21T05:54:18.232Z,4.58
2023-12-21T05:56:45.227Z,4.54
2023-12-21T05:59:12.581Z,4.51
2023-12-21T06:01:40.524Z,4.50
2023-12-21T06:04:07.522Z,4.50
2023-12-21T06:06:34.571Z,4.52
2023-12-21T06:09:01.477Z,4.52
2023-12-21T06:11:29.793Z,4.52
2023-12-21T06:13:56.872Z,4.53
2023-12-21T06:16:23.773Z,4.57
2023-12-21T06:18:51.790Z,4.59
2023-12-21T06:21:18.764Z,4.60
2023-12-21T06:23:45.699Z,4.61
2023-12-21T06:26:12.582Z,4.62
2023-12-21T06:28:39.613Z,4.62
2023-12-21T06:31:06.978Z,4.63
2023-12-21T06:33:34.097Z,4.62
2023-12-21T06:36:01.178Z,4.60
2023-12-21T06:38:28.133Z,4.57
2023-12-21T06:40:55.013Z,4.53
2023-12-21T06:43:23.798Z,4.52
2023-12-21T06:45:51.005Z,4.50
2023-12-21T06:48:18.049Z,4.45
2023-12-21T06:50:45.665Z,4.41
2023-12-21T06:53:16.756Z,4.39
2023-12-21T06:55:44.282Z,4.39
2023-12-21T06:58:11.810Z,4.40
2023-12-21T07:00:39.022Z,4.39
2023-12-21T07:03:06.009Z,4.39
2023-12-21T07:05:32.918Z,4.40
2023-12-21T07:07:59.927Z,4.42
2023-12-21T07:10:26.862Z,4.44
2023-12-21T07:12:53.900Z,4.42
2023-12-21T07:15:20.784Z,4.37
2023-12-21T07:17:47.630Z,4.34
2023-12-21T07:20:14.600Z,4.31
2023-12-21T07:22:41.515Z,4.31
2023-12-21T07:25:09.096Z,4.29
2023-12-21T07:27:36.057Z,4.22
2023-12-21T07:30:03.249Z,4.17
2023-12-21T07:32:30.483Z,4.14
2023-12-21T07:34:58.152Z,4.10
2023-12-21T07:37:25.045Z,4.03
2023-12-21T07:39:51.980Z,3.96
2023-12-21T07:42:18.989Z,3.91
2023-12-21T07:44:46.463Z,3.90
2023-12-21T07:47:13.321Z,3.90
2023-12-21T07:49:40.206Z,3.91
2023-12-21T07:52:08.472Z,3.92
2023-12-21T07:54:35.523Z,3.95
2023-12-21T07:57:02.423Z,3.97
2023-12-21T07:59:29.525Z,3.99
2023-12-21T08:01:56.453Z,4.03
2023-12-21T08:04:23.488Z,4.04
2023-12-21T08:06:50.382Z,4.03
2023-12-21T08:09:17.182Z,4.03
2023-12-21T08:11:44.077Z,4.03
2023-12-21T08:14:10.926Z,4.04
2023-12-21T08:16:38.283Z,4.04
2023-12-21T08:19:05.365Z,4.02
2023-12-21T08:21:32.363Z,4.01
2023-12-21T08:24:14.951Z,4.00
2023-12-21T08:26:42.088Z,4.02
2023-12-21T08:29:08.975Z,4.04
2023-12-21T08:31:35.993Z,4.06
2023-12-21T08:34:03.673Z,4.09
2023-12-21T08:36:30.949Z,4.12
2023-12-21T08:38:58.404Z,4.17
2023-12-21T08:41:27.083Z,4.22
2023-12-21T08:43:56.279Z,4.23
2023-12-21T08:46:23.219Z,4.26
2023-12-21T08:48:50.132Z,4.31
2023-12-21T08:51:19.694Z,4.36
2023-12-21T08:53:47.099Z,4.44
2023-12-21T08:56:14.697Z,4.49
2023-12-21T08:58:41.904Z,4.56
2023-12-21T09:01:10.412Z,4.66
2023-12-21T09:03:37.349Z,4.78
2023-12-21T09:06:04.532Z,4.91
2023-12-21T09:08:31.554Z,5.02
2023-12-21T09:10:58.492Z,5.10
2023-12-21T09:13:25.391Z,5.13
2023-12-21T09:15:52.312Z,5.17
2023-12-21T09:18:19.997Z,5.25
2023-12-21T09:20:47.087Z,5.29
2023-12-21T09:23:14.377Z,5.33
2023-12-21T09:25:41.411Z,5.36
2023-12-21T09:28:08.397Z,5.44
2023-12-21T09:30:35.661Z,5.51
2023-12-21T09:33:02.650Z,5.56
2023-12-21T09:35:30.062Z,5.62
2023-12-21T09:37:57.026Z,5.70
2023-12-21T09:40:26.544Z,5.77
2023-12-21T09:43:04.907Z,5.82
2023-12-21T09:45:38.118Z,5.82
2023-12-21T09:48:06.530Z,5.87
2023-12-21T09:50:33.596Z,5.93
2023-12-21T09:53:01.955Z,5.95
2023-12-21T09:55:32.602Z,5.99
2023-12-21T09:58:01.326Z,6.02
2023-12-21T10:00:30.573Z,6.06
2023-12-21T10:02:57.487Z,6.12
2023-12-21T10:05:24.499Z,6.17
2023-12-21T10:07:51.409Z,6.19
2023-12-21T10:10:19.691Z,6.22
2023-12-21T10:12:46.839Z,6.27
2023-12-21T10:15:14.554Z,6.28
2023-12-21T10:17:41.858Z,6.28
2023-12-21T10:20:13.345Z,6.23
2023-12-21T10:22:41.619Z,6.23
2023-12-21T10:25:09.601Z,6.26
2023-12-21T10:27:37.565Z,6.25
2023-12-21T10:30:05.942Z,6.22
2023-12-21T10:32:33.496Z,6.23
2023-12-21T10:35:01.226Z,6.26
2023-12-21T10:37:29.336Z,6.30
2023-12-21T10:39:58.151Z,6.32
2023-12-21T10:42:25.603Z,6.32
2023-12-21T10:44:52.692Z,6.34
2023-12-21T10:47:22.461Z,6.36
2023-12-21T10:49:52.272Z,6.38
2023-12-21T10:52:20.685Z,6.38
2023-12-21T10:54:48.073Z,6.38
2023-12-21T10:57:16.574Z,6.40
2023-12-21T10:59:44.894Z,6.43
2023-12-21T11:02:15.288Z,6.45
2023-12-21T11:04:45.447Z,6.45
2023-12-21T11:07:15.480Z,6.45
2023-12-21T11:09:43.512Z,6.48
2023-12-21T11:12:10.426Z,6.50
2023-12-21T11:14:38.155Z,6.50
2023-12-21T11:17:11.590Z,6.48
2023-12-21T11:19:40.914Z,6.47
2023-12-21T11:22:08.214Z,6.45
2023-12-21T11:24:35.673Z,6.42
2023-12-21T11:27:03.407Z,6.42
2023-12-21T11:29:30.724Z,6.39
2023-12-21T11:31:58.389Z,6.34
2023-12-21T11:34:41.319Z,6.27
2023-12-21T11:37:25.912Z,6.17
2023-12-21T11:39:54.609Z,6.04
2023-12-21T11:42:22.766Z,5.97
2023-12-21T11:44:53.535Z,5.91
2023-12-21T11:47:21.610Z,5.87
2023-12-21T11:49:48.843Z,5.79
2023-12-21T11:52:25.055Z,5.70
2023-12-21T11:54:52.145Z,5.66
2023-12-21T11:57:19.139Z,5.59
2023-12-21T11:59:46.225Z,5.56
2023-12-21T12:02:15.959Z,5.54
2023-12-21T12:04:49.294Z,5.51
2023-12-21T12:07:19.434Z,5.49
2023-12-21T12:09:47.111Z,5.48
2023-12-21T12:12:14.082Z,5.49
2023-12-21T12:14:40.940Z,5.49
2023-12-21T12:17:07.789Z,5.47
2023-12-21T12:19:38.450Z,5.45
2023-12-21T12:22:05.580Z,5.43
2023-12-21T12:24:32.668Z,5.44
2023-12-21T12:26:59.948Z,5.44
2023-12-21T12:29:30.765Z,5.41
2023-12-21T12:31:57.902Z,5.42
2023-12-21T12:34:24.949Z,5.44
2023-12-21T12:36:56.104Z,5.45
2023-12-21T12:39:23.595Z,5.44
2023-12-21T12:41:55.970Z,5.43
2023-12-21T12:44:25.588Z,5.41
2023-12-21T12:46:52.794Z,5.41
2023-12-21T12:49:19.930Z,5.42
2023-12-21T12:51:46.825Z,5.42
2023-12-21T12:54:14.257Z,5.39
2023-12-21T12:56:50.003Z,5.34
2023-12-21T12:59:20.673Z,5.30
2023-12-21T13:01:47.816Z,5.26
2023-12-21T13:04:15.361Z,5.24
2023-12-21T13:06:42.437Z,5.19
2023-12-21T13:09:09.533Z,5.14
2023-12-21T13:11:36.483Z,5.10
2023-12-21T13:14:05.524Z,5.07
2023-12-21T13:16:32.479Z,5.04
2023-12-21T13:18:59.418Z,5.01
2023-12-21T13:21:26.371Z,4.98
2023-12-21T13:23:53.279Z,4.97
2023-12-21T13:26:20.627Z,4.96
2023-12-21T13:28:48.330Z,4.96
2023-12-21T13:31:15.631Z,4.95
2023-12-21T13:33:42.981Z,4.92
2023-12-21T13:36:10.040Z,4.90
2023-12-21T13:38:39.147Z,4.90
2023-12-21T13:41:09.858Z,4.91
2023-12-21T13:43:38.295Z,4.91
2023-12-21T13:46:05.916Z,4.90
2023-12-21T13:48:33.044Z,4.88
2023-12-21T13:51:00.634Z,4.86
2023-12-21T13:53:27.500Z,4.86
2023-12-21T13:55:54.588Z,4.85
2023-12-21T13:58:21.932Z,4.87
2023-12-21T14:00:49.550Z,4.86
2023-12-21T14:03:17.697Z,4.87
2023-12-21T14:05:44.649Z,4.87
2023-12-21T14:08:11.655Z,4.89
2023-12-21T14:10:38.714Z,4.91
2023-12-21T14:13:05.627Z,4.90
2023-12-21T14:15:32.573Z,4.90
2023-12-21T14:17:59.486Z,4.89
2023-12-21T14:20:26.671Z,4.90
2023-12-21T14:22:53.781Z,4.92
2023-12-21T14:25:20.896Z,4.91
2023-12-21T14:27:49.099Z,4.89
2023-12-21T14:30:16.072Z,4.85
2023-12-21T14:32:44.199Z,4.82
2023-12-21T14:35:11.490Z,4.80
2023-12-21T14:37:38.524Z,4.79
2023-12-21T14:40:06.190Z,4.77
2023-12-21T14:42:33.064Z,4.77
2023-12-21T14:44:59.976Z,4.77
2023-12-21T14:47:31.290Z,4.74
2023-12-21T14:49:58.349Z,4.76
2023-12-21T14:52:26.109Z,4.75
2023-12-21T14:54:52.974Z,4.77
2023-12-21T14:57:19.781Z,4.76
2023-12-21T14:59:46.698Z,4.77
2023-12-21T15:02:13.703Z,4.77
2023-12-21T15:04:40.610Z,4.77
2023-12-21T15:07:08.478Z,4.79
2023-12-21T15:09:37.506Z,4.79
2023-12-21T15:12:05.108Z,4.80
2023-12-21T15:14:32.636Z,4.82
2023-12-21T15:17:00.647Z,4.83
2023-12-21T15:19:32.701Z,4.86
2023-12-21T15:22:01.013Z,4.87
2023-12-21T15:24:28.149Z,4.90
2023-12-21T15:26:55.292Z,4.89
2023-12-21T15:29:22.367Z,4.92
2023-12-21T15:31:49.500Z,4.93
2023-12-21T15:34:16.645Z,4.97
2023-12-21T15:36:43.676Z,4.99
2023-12-21T15:39:10.803Z,5.02
2023-12-21T15:41:37.696Z,5.08
2023-12-21T15:44:04.736Z,5.12
2023-12-21T15:46:33.660Z,5.14
2023-12-21T15:49:01.959Z,5.15
2023-12-21T15:51:28.862Z,5.18
2023-12-21T15:53:55.687Z,5.22
2023-12-21T15:56:23.440Z,5.26
2023-12-21T15:58:50.325Z,5.30
2023-12-21T16:01:20.586Z,5.33
2023-12-21T16:03:47.980Z,5.37
2023-12-21T16:06:15.102Z,5.39
2023-12-21T16:08:42.193Z,5.42
2023-12-21T16:11:11.333Z,5.45
2023-12-21T16:13:38.747Z,5.44
2023-12-21T16:16:06.102Z,5.45
2023-12-21T16:18:33.122Z,5.45
2023-12-21T16:21:01.536Z,5.48
2023-12-21T16:23:28.405Z,5.48
2023-12-21T16:25:55.707Z,5.48
2023-12-21T16:28:22.965Z,5.47
2023-12-21T16:30:49.862Z,5.48
2023-12-21T16:33:19.927Z,5.48
2023-12-21T16:35:47.133Z,5.49
2023-12-21T16:38:16.050Z,5.49
2023-12-21T16:40:43.005Z,5.45
2023-12-21T16:43:09.966Z,5.44
2023-12-21T16:45:37.169Z,5.43
2023-12-21T16:48:04.316Z,5.45
2023-12-21T16:50:31.353Z,5.46
2023-12-21T16:52:58.435Z,5.45
2023-12-21T16:55:25.710Z,5.46
2023-12-21T16:57:52.705Z,5.47
2023-12-21T17:00:45.498Z,5.48
2023-12-21T17:03:22.356Z,5.45
2023-12-21T17:05:49.328Z,5.44
2023-12-21T17:08:16.245Z,5.46
2023-12-21T17:10:43.993Z,5.48
2023-12-21T17:13:10.912Z,5.49
2023-12-21T17:15:37.891Z,5.50
2023-12-21T17:18:05.106Z,5.52
2023-12-21T17:20:34.337Z,5.54
2023-12-21T17:23:03.196Z,5.57
2023-12-21T17:25:30.434Z,5.63
2023-12-21T17:27:57.759Z,5.65
2023-12-21T17:30:26.433Z,5.66
2023-12-21T17:32:53.569Z,5.67
2023-12-21T17:35:20.731Z,5.70
2023-12-21T17:37:49.211Z,5.73
2023-12-21T17:40:16.946Z,5.72
2023-12-21T17:42:44.416Z,5.73
2023-12-21T17:45:12.028Z,5.74
2023-12-21T17:47:39.387Z,5.76
2023-12-21T17:50:07.316Z,5.80
2023-12-21T17:52:34.370Z,5.81
2023-12-21T17:55:01.559Z,5.82
2023-12-21T17:57:28.736Z,5.83
2023-12-21T17:59:56.442Z,5.87
2023-12-21T18:02:23.444Z,5.92
2023-12-21T18:04:54.506Z,5.93
2023-12-21T18:07:25.426Z,5.92
2023-12-21T18:09:54.541Z,5.95
2023-12-21T18:12:22.119Z,5.97
2023-12-21T18:14:49.167Z,6.00
2023-12-21T18:17:16.068Z,6.03
2023-12-21T18:19:44.173Z,6.04
2023-12-21T18:22:15.073Z,6.05
2023-12-21T18:24:45.906Z,6.08
2023-12-21T18:27:13.655Z,6.10
2023-12-21T18:29:41.151Z,6.13
2023-12-21T18:32:08.066Z,6.16
2023-12-21T18:34:35.340Z,6.15
2023-12-21T18:37:02.289Z,6.18
2023-12-21T18:39:29.154Z,6.18
2023-12-21T18:41:56.656Z,6.23
2023-12-21T18:44:23.499Z,6.26
2023-12-21T18:46:53.466Z,6.29
2023-12-21T18:49:20.983Z,6.28
2023-12-21T18:51:48.291Z,6.29
2023-12-21T18:54:15.235Z,6.30
2023-12-21T18:56:42.141Z,6.32
2023-12-21T18:59:09.137Z,6.33
2023-12-21T19:01:36.130Z,6.34
2023-12-21T19:04:03.271Z,6.34
2023-12-21T19:06:30.527Z,6.36
2023-12-21T19:08:58.643Z,6.40
2023-12-21T19:11:26.921Z,6.46
2023-12-21T19:13:53.938Z,6.49
2023-12-21T19:16:20.983Z,6.51
2023-12-21T19:18:49.583Z,6.52
2023-12-21T19:21:17.348Z,6.57
2023-12-21T19:23:44.988Z,6.61
2023-12-21T19:26:12.545Z,6.66
2023-12-21T19:28:41.871Z,6.72
2023-12-21T19:31:10.171Z,6.75
2023-12-21T19:33:37.629Z,6.77
2023-12-21T19:36:06.525Z,6.83
2023-12-21T19:38:33.710Z,6.89
2023-12-21T19:41:02.315Z,6.93
2023-12-21T19:43:29.451Z,6.95
2023-12-21T19:46:01.053Z,6.98
2023-12-21T19:48:28.085Z,7.03
2023-12-21T19:50:55.430Z,7.05
2023-12-21T19:53:24.997Z,7.05
2023-12-21T19:55:52.748Z,7.06
2023-12-21T19:58:19.998Z,7.10
2023-12-21T20:00:47.639Z,7.13
2023-12-21T20:03:15.396Z,7.16
2023-12-21T20:05:42.854Z,7.15
2023-12-21T20:08:10.726Z,7.16
2023-12-21T20:10:41.259Z,7.16
2023-12-21T20:13:09.731Z,7.19
2023-12-21T20:15:38.994Z,7.18
2023-12-21T20:18:06.354Z,7.17
2023-12-21T20:20:34.146Z,7.17
2023-12-21T20:23:01.732Z,7.20
2023-12-21T20:25:28.744Z,7.22
2023-12-21T20:27:56.710Z,7.24
2023-12-21T20:30:25.136Z,7.24
2023-12-21T20:32:52.412Z,7.25
2023-12-21T20:35:19.857Z,7.25
2023-12-21T20:37:47.781Z,7.26
2023-12-21T20:40:18.365Z,7.24
2023-12-21T20:42:47.386Z,7.20
2023-12-21T20:45:14.944Z,7.18
2023-12-21T20:47:49.372Z,7.17
2023-12-21T20:50:18.825Z,7.17
2023-12-21T20:52:46.228Z,7.18
2023-12-21T20:55:16.551Z,7.17
2023-12-21T20:57:44.577Z,7.15
2023-12-21T21:00:12.399Z,7.16
2023-12-21T21:02:40.042Z,7.15
2023-12-21T21:05:07.546Z,7.14
2023-12-21T21:07:35.414Z,7.12
2023-12-21T21:10:02.334Z,7.09
2023-12-21T21:12:29.178Z,7.07
2023-12-21T21:14:56.333Z,7.06
2023-12-21T21:17:25.545Z,7.06
2023-12-21T21:19:53.656Z,7.05
2023-12-21T21:22:20.703Z,7.01
2023-12-21T21:24:47.872Z,6.99
2023-12-21T21:27:14.684Z,6.97
2023-12-21T21:29:41.663Z,6.98
2023-12-21T21:32:08.901Z,6.99
2023-12-21T21:34:37.708Z,6.96
2023-12-21T21:37:04.800Z,6.94
2023-12-21T21:39:33.720Z,6.93
2023-12-21T21:42:01.357Z,6.94
2023-12-21T21:44:31.184Z,6.93
2023-12-21T21:47:00.694Z,6.90
2023-12-21T21:49:27.777Z,6.89
2023-12-21T21:51:54.836Z,6.88
2023-12-21T21:54:22.966Z,6.87
2023-12-21T21:56:49.972Z,6.86
2023-12-21T21:59:16.914Z,6.83
2023-12-21T22:01:46.931Z,6.82
2023-12-21T22:04:16.976Z,6.81
2023-12-21T22:06:44.111Z,6.82
2023-12-21T22:09:26.741Z,6.81
2023-12-21T22:11:53.593Z,6.79
2023-12-21T22:14:20.428Z,6.77
2023-12-21T22:16:49.654Z,6.77
2023-12-21T22:19:17.607Z,6.78
2023-12-21T22:21:44.816Z,6.78
2023-12-21T22:24:11.754Z,6.76
2023-12-21T22:26:38.586Z,6.74
2023-12-21T22:29:05.467Z,6.72
2023-12-21T22:31:32.426Z,6.71
2023-12-21T22:33:59.393Z,6.70
2023-12-21T22:36:26.258Z,6.68
2023-12-21T22:38:53.341Z,6.68
2023-12-21T22:41:20.918Z,6.66
2023-12-21T22:43:47.818Z,6.64
2023-12-21T22:46:14.914Z,6.65
2023-12-21T22:48:43.581Z,6.67
2023-12-21T22:51:10.928Z,6.66
2023-12-21T22:53:37.829Z,6.64
2023-12-21T22:56:04.883Z,6.61
2023-12-21T22:58:32.060Z,6.57
2023-12-21T23:00:58.959Z,6.54
2023-12-21T23:03:25.953Z,6.53
2023-12-21T23:05:53.116Z,6.51
2023-12-21T23:08:20.049Z,6.47
2023-12-21T23:10:47.010Z,6.43
2023-12-21T23:13:18.938Z,6.39
2023-12-21T23:15:46.461Z,6.39
2023-12-21T23:18:14.012Z,6.40
2023-12-21T23:20:41.070Z,6.40
2023-12-21T23:23:08.161Z,6.39
2023-12-21T23:25:35.136Z,6.39
2023-12-21T23:28:01.991Z,6.36
2023-12-21T23:30:28.896Z,6.36
2023-12-21T23:32:55.860Z,6.36
2023-12-21T23:35:23.828Z,6.35
2023-12-21T23:37:51.473Z,6.32
2023-12-21T23:40:18.961Z,6.28
2023-12-21T23:42:46.345Z,6.25
2023-12-21T23:45:13.575Z,6.24
2023-12-21T23:47:40.697Z,6.21
2023-12-21T23:50:08.455Z,6.18
2023-12-21T23:52:35.511Z,6.15
2023-12-21T23:55:02.776Z,6.11
2023-12-21T23:57:29.660Z,6.07
2023-12-21T23:59:56.551Z,6.06
